createdAt,value
2018-05-17T00:00:20.899Z,97519.61
2018-05-17T00:02:50.510Z,97516.59
2018-05-17T00:05:20.292Z,97512.77
2018-05-17T00:07:51.138Z,97511.34
2018-05-17T00:10:20.861Z,97509.07
2018-05-17T00:12:51.017Z,97506.97
2018-05-17T00:15:21.373Z,97507.71
2018-05-17T00:17:51.723Z,97507.22
2018-05-17T00:20:21.296Z,97508.67
2018-05-17T00:22:50.788Z,97509.27
2018-05-17T00:25:20.303Z,97504.53
2018-05-17T00:27:50.798Z,97501.08
2018-05-17T00:30:20.540Z,97504.36
2018-05-17T00:32:50.782Z,97500.37
2018-05-17T00:35:20.628Z,97499.63
2018-05-17T00:37:50.330Z,97504.44
2018-05-17T00:40:20.440Z,97509.64
2018-05-17T00:42:50.186Z,97500.30
2018-05-17T00:45:20.070Z,97505.59
2018-05-17T00:47:49.743Z,97507.73
2018-05-17T00:50:19.707Z,97506.97
2018-05-17T00:53:06.910Z,97507.41
2018-05-17T00:55:36.432Z,97504.77
2018-05-17T00:58:06.294Z,97505.70
2018-05-17T01:00:35.969Z,97507.80
2018-05-17T01:03:05.792Z,97510.52
2018-05-17T01:05:35.414Z,97506.13
2018-05-17T01:08:05.963Z,97506.73
2018-05-17T01:10:35.750Z,97511.72
2018-05-17T01:13:05.436Z,97512.72
2018-05-17T01:15:35.054Z,97513.80
2018-05-17T01:18:04.648Z,97516.33
2018-05-17T01:20:34.266Z,97513.36
2018-05-17T01:23:03.854Z,97512.86
2018-05-17T01:25:34.551Z,97521.05
2018-05-17T01:28:04.331Z,97517.48
2018-05-17T01:30:33.941Z,97510.78
2018-05-17T01:33:03.817Z,97513.97
2018-05-17T01:35:33.437Z,97517.30
2018-05-17T01:38:20.867Z,97524.80
2018-05-17T01:40:50.473Z,97517.16
2018-05-17T01:43:20.209Z,97515.13
2018-05-17T01:45:50.044Z,97511.94
2018-05-17T01:48:21.989Z,97507.88
2018-05-17T01:50:51.691Z,97508.25
2018-05-17T01:53:21.297Z,97511.45
2018-05-17T01:56:12.803Z,97502.09
2018-05-17T01:58:44.227Z,97498.59
2018-05-17T02:01:15.023Z,97496.30
2018-05-17T02:03:46.306Z,97495.70
2018-05-17T02:06:15.977Z,97495.55
2018-05-17T02:08:45.690Z,97498.05
2018-05-17T02:11:15.390Z,97499.41
2018-05-17T02:13:44.943Z,97491.58
2018-05-17T02:16:14.506Z,97493.98
2018-05-17T02:18:44.318Z,97495.50
2018-05-17T02:21:13.910Z,97491.30
2018-05-17T02:23:44.218Z,97498.91
2018-05-17T02:26:13.837Z,97490.25
2018-05-17T02:28:50.623Z,97488.49
2018-05-17T02:31:21.267Z,97492.88
2018-05-17T02:33:50.932Z,97498.92
2018-05-17T02:36:21.385Z,97503.29
2018-05-17T02:38:51.120Z,97503.87
2018-05-17T02:41:20.917Z,97515.80
2018-05-17T02:43:50.541Z,97517.16
2018-05-17T02:46:20.845Z,97519.77
2018-05-17T02:48:50.419Z,97518.20
2018-05-17T02:51:28.514Z,97519.68
2018-05-17T02:54:09.829Z,97523.58
2018-05-17T02:56:39.572Z,97524.63
2018-05-17T02:59:14.002Z,97516.68
2018-05-17T03:01:43.810Z,97511.84
2018-05-17T03:04:14.947Z,97510.58
2018-05-17T03:06:44.555Z,97505.56
2018-05-17T03:09:14.230Z,97517.95
2018-05-17T03:11:43.848Z,97518.67
2018-05-17T03:14:13.590Z,97518.75
2018-05-17T03:16:43.907Z,97523.95
2018-05-17T03:19:13.575Z,97519.17
2018-05-17T03:21:43.099Z,97521.75
2018-05-17T03:24:13.057Z,97523.15
2018-05-17T03:26:42.862Z,97518.50
2018-05-17T03:29:13.355Z,97524.72
2018-05-17T03:31:43.094Z,97527.16
2018-05-17T03:34:13.309Z,97534.22
2018-05-17T03:36:42.839Z,97531.19
2018-05-17T03:39:12.416Z,97524.82
2018-05-17T03:41:41.958Z,97531.22
2018-05-17T03:44:11.473Z,97529.71
2018-05-17T03:46:41.874Z,97533.63
2018-05-17T03:49:11.584Z,97530.69
2018-05-17T03:51:41.404Z,97524.97
2018-05-17T03:54:10.903Z,97525.98
2018-05-17T03:56:40.455Z,97525.32
2018-05-17T03:59:10.083Z,97522.30
2018-05-17T04:01:57.556Z,97527.33
2018-05-17T04:04:45.053Z,97527.91
2018-05-17T04:07:14.799Z,97531.72
2018-05-17T04:09:44.458Z,97529.69
2018-05-17T04:12:14.181Z,97530.63
2018-05-17T04:14:43.920Z,97532.28
2018-05-17T04:17:13.469Z,97536.98
2018-05-17T04:19:43.128Z,97533.38
2018-05-17T04:22:12.854Z,97535.71
2018-05-17T04:24:42.463Z,97543.88
2018-05-17T04:27:12.048Z,97542.53
2018-05-17T04:29:41.666Z,97547.97
2018-05-17T04:32:12.524Z,97548.43
2018-05-17T04:34:42.956Z,97549.47
2018-05-17T04:37:13.436Z,97554.42
2018-05-17T04:39:43.070Z,97546.41
2018-05-17T04:42:12.577Z,97545.75
2018-05-17T04:44:42.349Z,97551.00
2018-05-17T04:47:12.165Z,97551.47
2018-05-17T04:49:41.732Z,97549.36
2018-05-17T04:52:12.787Z,97554.02
2018-05-17T04:54:42.309Z,97549.98
2018-05-17T04:57:11.830Z,97556.69
2018-05-17T04:59:41.571Z,97554.13
2018-05-17T05:02:11.283Z,97560.39
2018-05-17T05:04:40.821Z,97558.69
2018-05-17T05:07:10.563Z,97564.44
2018-05-17T05:09:40.322Z,97569.22
2018-05-17T05:12:10.070Z,97564.45
2018-05-17T05:14:39.678Z,97566.02
2018-05-17T05:17:09.937Z,97572.20
2018-05-17T05:19:39.554Z,97577.64
2018-05-17T05:22:09.116Z,97575.26
2018-05-17T05:24:39.781Z,97574.91
2018-05-17T05:27:09.354Z,97571.39
2018-05-17T05:29:39.846Z,97570.88
2018-05-17T05:32:09.417Z,97571.80
2018-05-17T05:34:40.487Z,97567.80
2018-05-17T05:37:11.440Z,97572.27
2018-05-17T05:39:41.962Z,97571.18
2018-05-17T05:42:11.883Z,97572.97
2018-05-17T05:44:41.459Z,97581.72
2018-05-17T05:47:10.963Z,97574.27
2018-05-17T05:49:40.760Z,97581.06
2018-05-17T05:52:10.321Z,97582.44
2018-05-17T05:54:39.895Z,97578.73
2018-05-17T05:57:09.528Z,97578.54
2018-05-17T05:59:39.335Z,97586.54
2018-05-17T06:02:09.087Z,97593.14
2018-05-17T06:04:38.973Z,97586.55
2018-05-17T06:07:08.676Z,97589.47
2018-05-17T06:09:38.504Z,97580.88
2018-05-17T06:12:08.266Z,97589.80
2018-05-17T06:14:38.123Z,97586.23
2018-05-17T06:17:09.243Z,97582.97
2018-05-17T06:19:39.372Z,97578.29
2018-05-17T06:22:09.823Z,97577.58
2018-05-17T06:24:39.626Z,97576.50
2018-05-17T06:27:10.674Z,97574.91
2018-05-17T06:29:40.227Z,97577.83
2018-05-17T06:32:09.740Z,97583.75
2018-05-17T06:34:39.603Z,97588.78
2018-05-17T06:37:09.304Z,97592.89
2018-05-17T06:39:38.884Z,97593.06
2018-05-17T06:42:09.036Z,97597.09
2018-05-17T06:44:38.688Z,97597.42
2018-05-17T06:47:09.081Z,97593.98
2018-05-17T06:49:38.855Z,97593.30
2018-05-17T06:52:08.486Z,97586.21
2018-05-17T06:54:40.324Z,97592.72
2018-05-17T06:57:10.063Z,97587.27
2018-05-17T06:59:39.666Z,97585.92
2018-05-17T07:02:09.665Z,97584.45
2018-05-17T07:04:39.168Z,97583.84
2018-05-17T07:07:08.689Z,97585.87
2018-05-17T07:09:38.418Z,97589.72
2018-05-17T07:12:08.134Z,97596.93
2018-05-17T07:14:37.813Z,97594.71
2018-05-17T07:17:07.307Z,97594.14
2018-05-17T07:19:37.120Z,97592.64
2018-05-17T07:22:06.739Z,97593.36
2018-05-17T07:24:36.316Z,97597.47
2018-05-17T07:27:07.670Z,97590.02
2018-05-17T07:29:38.454Z,97595.32
2018-05-17T07:32:08.269Z,97590.44
2018-05-17T07:34:37.824Z,97591.55
2018-05-17T07:37:09.407Z,97589.56
2018-05-17T07:39:39.252Z,97584.39
2018-05-17T07:42:08.948Z,97588.92
2018-05-17T07:44:38.638Z,97595.70
2018-05-17T07:47:08.399Z,97595.55
2018-05-17T07:49:38.087Z,97593.95
2018-05-17T07:52:07.721Z,97596.62
2018-05-17T07:54:37.710Z,97590.22
2018-05-17T07:57:22.616Z,97589.13
2018-05-17T07:59:54.232Z,97592.06
2018-05-17T08:02:23.910Z,97592.06
2018-05-17T08:04:53.378Z,97587.16
2018-05-17T08:07:23.767Z,97589.98
2018-05-17T08:09:53.487Z,97582.92
2018-05-17T08:12:24.735Z,97592.17
2018-05-17T08:14:54.449Z,97583.47
2018-05-17T08:17:24.146Z,97579.82
2018-05-17T08:19:56.324Z,97584.79
2018-05-17T08:22:27.051Z,97584.13
2018-05-17T08:24:56.870Z,97585.98
2018-05-17T08:27:26.658Z,97586.76
2018-05-17T08:29:56.231Z,97581.75
2018-05-17T08:32:25.927Z,97584.57
2018-05-17T08:34:56.354Z,97588.96
2018-05-17T08:37:27.078Z,97588.15
2018-05-17T08:39:57.798Z,97588.25
2018-05-17T08:42:29.466Z,97592.44
2018-05-17T08:44:59.369Z,97584.73
2018-05-17T08:47:29.323Z,97590.02
2018-05-17T08:49:59.036Z,97587.59
2018-05-17T08:52:28.788Z,97582.78
2018-05-17T08:54:58.512Z,97585.12
2018-05-17T08:57:28.118Z,97577.50
2018-05-17T08:59:57.626Z,97584.72
2018-05-17T09:02:27.265Z,97580.73
2018-05-17T09:04:56.896Z,97576.25
2018-05-17T09:07:27.489Z,97566.52
2018-05-17T09:09:57.026Z,97569.12
2018-05-17T09:12:26.801Z,97569.08
2018-05-17T09:14:56.619Z,97565.49
2018-05-17T09:17:27.039Z,97566.38
2018-05-17T09:19:56.728Z,97562.91
2018-05-17T09:22:26.439Z,97563.68
2018-05-17T09:24:56.173Z,97561.93
2018-05-17T09:27:25.908Z,97565.27
2018-05-17T09:29:56.830Z,97571.78
2018-05-17T09:32:26.413Z,97569.69
2018-05-17T09:34:56.155Z,97571.59
2018-05-17T09:37:26.196Z,97569.03
2018-05-17T09:39:57.875Z,97568.56
2018-05-17T09:42:55.245Z,97568.55
2018-05-17T09:49:05.051Z,97566.72
2018-05-17T09:51:39.086Z,97571.16
2018-05-17T09:54:08.771Z,97574.84
2018-05-17T09:56:38.482Z,97569.03
2018-05-17T09:59:08.038Z,97567.23
2018-05-17T10:01:38.445Z,97565.16
2018-05-17T10:04:07.936Z,97571.01
2018-05-17T10:06:38.422Z,97559.63
2018-05-17T10:09:08.059Z,97562.23
2018-05-17T10:11:37.645Z,97573.19
2018-05-17T10:14:07.329Z,97570.20
2018-05-17T10:16:37.627Z,97565.83
2018-05-17T10:19:07.619Z,97554.43
2018-05-17T10:21:37.245Z,97551.30
2018-05-17T10:24:06.931Z,97554.95
2018-05-17T10:26:36.453Z,97549.86
2018-05-17T10:29:06.952Z,97549.30
2018-05-17T10:31:36.661Z,97545.97
2018-05-17T10:34:14.283Z,97549.65
2018-05-17T10:36:43.906Z,97552.51
2018-05-17T10:39:13.790Z,97548.27
2018-05-17T10:41:44.471Z,97546.09
2018-05-17T10:44:14.780Z,97545.12
2018-05-17T10:46:44.463Z,97543.38
2018-05-17T10:49:14.060Z,97540.95
2018-05-17T10:51:43.742Z,97546.20
2018-05-17T10:54:14.146Z,97542.08
2018-05-17T10:56:44.554Z,97533.98
2018-05-17T10:59:14.441Z,97535.56
2018-05-17T11:01:44.063Z,97534.80
2018-05-17T11:04:14.705Z,97535.67
2018-05-17T11:06:44.224Z,97531.06
2018-05-17T11:09:14.129Z,97524.94
2018-05-17T11:11:43.749Z,97530.96
2018-05-17T11:14:14.195Z,97525.59
2018-05-17T11:16:43.972Z,97531.83
2018-05-17T11:19:13.786Z,97514.36
2018-05-17T11:21:43.555Z,97517.05
2018-05-17T11:24:14.029Z,97513.45
2018-05-17T11:26:43.889Z,97508.89
2018-05-17T11:29:13.595Z,97509.39
2018-05-17T11:31:43.300Z,97502.13
2018-05-17T11:34:14.510Z,97500.23
2018-05-17T11:36:44.042Z,97501.09
2018-05-17T11:39:13.694Z,97493.22
2018-05-17T11:41:43.536Z,97493.37
2018-05-17T11:44:13.224Z,97492.89
2018-05-17T11:46:42.923Z,97497.21
2018-05-17T11:49:12.599Z,97496.25
2018-05-17T11:51:42.993Z,97500.25
2018-05-17T11:54:12.637Z,97492.80
2018-05-17T11:56:43.013Z,97491.83
2018-05-17T11:59:27.734Z,97497.62
2018-05-17T12:01:58.013Z,97484.92
2018-05-17T12:04:28.684Z,97477.45
2018-05-17T12:06:58.361Z,97476.81
2018-05-17T12:09:27.850Z,97483.84
2018-05-17T12:11:57.467Z,97470.80
2018-05-17T12:14:27.050Z,97472.19
2018-05-17T12:16:56.590Z,97471.21
2018-05-17T12:19:26.410Z,97478.66
2018-05-17T12:21:56.109Z,97471.63
2018-05-17T12:24:25.706Z,97464.48
2018-05-17T12:26:56.724Z,97465.91
2018-05-17T12:29:26.438Z,97457.66
2018-05-17T12:31:56.155Z,97468.50
2018-05-17T12:34:25.679Z,97470.33
2018-05-17T12:36:56.109Z,97471.75
2018-05-17T12:39:25.629Z,97459.52
2018-05-17T12:41:55.223Z,97463.63
2018-05-17T12:44:24.760Z,97456.22
2018-05-17T12:46:54.364Z,97455.55
2018-05-17T12:49:24.052Z,97450.16
2018-05-17T12:51:53.661Z,97436.70
2018-05-17T12:54:23.773Z,97436.16
2018-05-17T12:56:53.575Z,97430.05
2018-05-17T12:59:24.129Z,97430.97
2018-05-17T13:01:53.839Z,97432.87
2018-05-17T13:04:24.368Z,97422.84
2018-05-17T13:06:54.106Z,97429.55
2018-05-17T13:09:23.737Z,97428.11
2018-05-17T13:11:54.032Z,97427.37
2018-05-17T13:14:23.580Z,97425.12
2018-05-17T13:16:53.328Z,97417.69
2018-05-17T13:19:23.811Z,97421.71
2018-05-17T13:21:54.621Z,97418.29
2018-05-17T13:24:25.625Z,97420.42
2018-05-17T13:26:55.422Z,97418.49
2018-05-17T13:29:26.227Z,97421.98
2018-05-17T13:31:55.895Z,97422.53
2018-05-17T13:34:25.722Z,97420.41
2018-05-17T13:36:56.918Z,97423.59
2018-05-17T13:39:27.362Z,97423.25
2018-05-17T13:41:57.304Z,97429.38
2018-05-17T13:44:26.942Z,97431.53
2018-05-17T13:46:57.550Z,97433.32
2018-05-17T13:49:27.070Z,97434.90
2018-05-17T13:51:58.038Z,97433.08
2018-05-17T13:54:28.405Z,97430.20
2018-05-17T13:56:58.087Z,97437.48
2018-05-17T13:59:27.848Z,97441.53
2018-05-17T14:02:01.520Z,97439.82
2018-05-17T14:04:31.319Z,97436.63
2018-05-17T14:07:00.986Z,97443.20
2018-05-17T14:09:31.566Z,97427.34
2018-05-17T14:12:03.390Z,97450.13
2018-05-17T14:14:32.948Z,97447.54
2018-05-17T14:17:03.067Z,97446.52
2018-05-17T14:19:33.385Z,97449.30
2018-05-17T14:22:03.586Z,97462.31
2018-05-17T14:24:33.227Z,97464.75
2018-05-17T14:27:05.123Z,97468.14
2018-05-17T14:29:35.597Z,97465.13
2018-05-17T14:32:05.311Z,97471.52
2018-05-17T14:34:34.917Z,97470.45
2018-05-17T14:37:04.918Z,97471.27
2018-05-17T14:39:34.517Z,97478.00
2018-05-17T14:42:04.888Z,97494.02
2018-05-17T14:44:35.660Z,97495.38
2018-05-17T14:47:05.975Z,97493.09
2018-05-17T14:49:35.831Z,97499.06
2018-05-17T14:52:05.955Z,97507.05
2018-05-17T14:54:36.064Z,97506.48
2018-05-17T14:57:07.253Z,97506.50
2018-05-17T14:59:37.060Z,97497.80
2018-05-17T15:02:06.700Z,97498.75
2018-05-17T15:04:37.150Z,97495.64
2018-05-17T15:07:08.140Z,97494.25
2018-05-17T15:09:37.718Z,97488.01
2018-05-17T15:12:07.232Z,97491.83
2018-05-17T15:14:37.075Z,97485.20
2018-05-17T15:17:06.645Z,97482.77
2018-05-17T15:19:38.136Z,97484.80
2018-05-17T15:22:07.860Z,97479.52
2018-05-17T15:24:37.724Z,97478.96
2018-05-17T15:27:07.259Z,97475.70
2018-05-17T15:29:36.979Z,97478.97
2018-05-17T15:32:06.544Z,97473.55
2018-05-17T15:34:37.119Z,97482.50
2018-05-17T15:37:06.926Z,97482.20
2018-05-17T15:39:36.722Z,97482.03
2018-05-17T15:42:06.495Z,97476.59
2018-05-17T15:44:37.046Z,97476.47
2018-05-17T15:47:06.995Z,97473.98
2018-05-17T15:49:36.804Z,97467.45
2018-05-17T15:52:06.439Z,97465.66
2018-05-17T15:54:36.265Z,97467.14
2018-05-17T15:57:05.917Z,97468.76
2018-05-17T15:59:37.226Z,97469.81
2018-05-17T16:02:07.914Z,97469.98
2018-05-17T16:04:37.748Z,97479.14
2018-05-17T16:07:14.425Z,97482.56
2018-05-17T16:09:44.161Z,97480.66
2018-05-17T16:12:13.966Z,97475.73
2018-05-17T16:14:44.624Z,97473.01
2018-05-17T16:17:15.916Z,97469.96
2018-05-17T16:19:45.680Z,97473.06
2018-05-17T16:22:15.544Z,97475.59
2018-05-17T16:24:45.256Z,97477.09
2018-05-17T16:27:15.113Z,97479.24
2018-05-17T16:29:56.012Z,97476.81
2018-05-17T16:32:46.735Z,97483.06
2018-05-17T16:35:20.415Z,97488.91
2018-05-17T16:37:50.178Z,97488.55
2018-05-17T16:40:20.263Z,97487.88
2018-05-17T16:42:50.075Z,97486.80
2018-05-17T16:45:19.700Z,97490.35
2018-05-17T16:47:49.383Z,97484.94
2018-05-17T16:50:20.850Z,97497.20
2018-05-17T16:52:50.739Z,97497.89
2018-05-17T16:55:20.626Z,97499.23
2018-05-17T16:57:50.295Z,97502.77
2018-05-17T17:00:20.327Z,97503.17
2018-05-17T17:02:50.102Z,97504.44
2018-05-17T17:05:19.633Z,97504.16
2018-05-17T17:07:50.755Z,97509.72
2018-05-17T17:10:20.599Z,97513.66
2018-05-17T17:12:50.410Z,97515.06
2018-05-17T17:15:31.593Z,97514.39
2018-05-17T17:18:03.857Z,97512.48
2018-05-17T17:20:33.375Z,97510.47
2018-05-17T17:23:03.393Z,97505.84
2018-05-17T17:25:33.131Z,97499.62
2018-05-17T17:28:03.947Z,97511.13
2018-05-17T17:30:33.523Z,97513.56
2018-05-17T17:33:04.782Z,97513.57
2018-05-17T17:35:34.370Z,97511.13
2018-05-17T17:38:04.482Z,97512.62
2018-05-17T17:40:39.861Z,97508.94
2018-05-17T17:43:10.176Z,97513.70
2018-05-17T17:45:45.727Z,97511.68
2018-05-17T17:48:21.691Z,97515.71
2018-05-17T17:51:02.834Z,97507.99
2018-05-17T17:53:46.445Z,97510.00
2018-05-17T17:56:17.658Z,97510.56
2018-05-17T17:58:47.143Z,97511.22
2018-05-17T18:01:16.752Z,97513.95
2018-05-17T18:03:46.531Z,97512.45
2018-05-17T18:06:16.291Z,97510.12
2018-05-17T18:08:45.816Z,97512.56
2018-05-17T18:11:15.680Z,97512.98
2018-05-17T18:13:45.335Z,97520.02
2018-05-17T18:16:14.909Z,97523.28
2018-05-17T18:18:44.809Z,97522.74
2018-05-17T18:21:14.558Z,97524.48
2018-05-17T18:23:44.142Z,97525.29
2018-05-17T18:26:14.061Z,97533.02
2018-05-17T18:28:43.713Z,97533.02
2018-05-17T18:31:13.345Z,97532.45
2018-05-17T18:33:43.866Z,97530.52
2018-05-17T18:36:14.275Z,97536.20
2018-05-17T18:38:45.393Z,97536.17
2018-05-17T18:41:14.981Z,97537.80
2018-05-17T18:43:45.025Z,97543.85
2018-05-17T18:46:14.776Z,97545.72
2018-05-17T18:48:44.856Z,97540.29
2018-05-17T18:51:16.106Z,97548.30
2018-05-17T18:53:45.923Z,97549.52
2018-05-17T18:56:15.629Z,97545.80
2018-05-17T18:58:51.163Z,97552.80
2018-05-17T19:01:20.889Z,97556.53
2018-05-17T19:03:51.429Z,97557.86
2018-05-17T19:06:21.256Z,97558.91
2018-05-17T19:08:52.348Z,97559.97
2018-05-17T19:11:21.994Z,97554.95
2018-05-17T19:13:52.505Z,97561.30
2018-05-17T19:16:22.428Z,97559.94
2018-05-17T19:18:52.345Z,97567.38
2018-05-17T19:21:22.229Z,97570.20
2018-05-17T19:23:51.977Z,97577.23
2018-05-17T19:26:26.172Z,97583.58
2018-05-17T19:28:55.884Z,97588.45
2018-05-17T19:31:26.213Z,97589.97
2018-05-17T19:33:55.809Z,97590.47
2018-05-17T19:36:26.334Z,97596.06
2018-05-17T19:38:56.096Z,97594.67
2018-05-17T19:41:25.891Z,97592.05
2018-05-17T19:43:55.717Z,97594.61
2018-05-17T19:46:25.330Z,97596.00
2018-05-17T19:48:54.994Z,97602.38
2018-05-17T20:01:14.615Z,97617.56
2018-05-17T20:04:05.210Z,97628.95
2018-05-17T20:06:35.168Z,97637.78
2018-05-17T20:09:06.844Z,97633.56
2018-05-17T20:11:36.684Z,97632.23
2018-05-17T20:14:06.735Z,97629.21
2018-05-17T20:16:36.497Z,97630.73
2018-05-17T20:19:06.311Z,97617.64
2018-05-17T20:21:36.109Z,97630.05
2018-05-17T20:24:07.001Z,97626.39
2018-05-17T20:26:36.734Z,97625.67
2018-05-17T20:29:06.399Z,97622.66
2018-05-17T20:31:36.014Z,97620.53
2018-05-17T20:34:05.700Z,97621.83
2018-05-17T20:36:41.897Z,97618.41
2018-05-17T20:39:13.998Z,97623.80
2018-05-17T20:41:43.661Z,97618.31
2018-05-17T20:44:15.327Z,97630.97
2018-05-17T20:46:50.972Z,97627.98
2018-05-17T20:49:22.403Z,97628.39
2018-05-17T20:51:53.227Z,97631.48
2018-05-17T20:54:24.274Z,97626.20
2018-05-17T20:56:57.052Z,97620.80
2018-05-17T20:59:28.985Z,97620.33
2018-05-17T21:02:00.867Z,97616.88
2018-05-17T21:07:55.889Z,97624.43
2018-05-17T21:17:50.705Z,97615.30
2018-05-17T21:23:48.807Z,97616.23
2018-05-17T21:26:19.677Z,97615.28
2018-05-17T21:28:50.508Z,97618.59
2018-05-17T21:31:20.106Z,97619.48
2018-05-17T21:33:50.258Z,97614.44
2018-05-17T21:36:20.778Z,97607.45
2018-05-17T21:39:31.213Z,97602.50
2018-05-17T21:42:18.532Z,97600.31
2018-05-17T21:44:48.498Z,97591.34
2018-05-17T21:47:19.144Z,97596.92
2018-05-17T21:49:48.839Z,97604.27
2018-05-17T21:52:18.614Z,97607.76
2018-05-17T21:54:49.576Z,97600.77
2018-05-17T21:57:19.830Z,97598.09
2018-05-17T22:03:24.855Z,97593.88
2018-05-17T22:05:54.638Z,97595.38
2018-05-17T22:08:25.380Z,97596.17
2018-05-17T22:10:55.290Z,97594.03
2018-05-17T22:13:26.079Z,97592.45
2018-05-17T22:15:56.080Z,97599.08
2018-05-17T22:18:26.480Z,97595.23
2018-05-17T22:20:57.382Z,97586.17
2018-05-17T22:23:27.162Z,97588.02
2018-05-17T22:25:56.794Z,97585.98
2018-05-17T22:28:27.326Z,97588.42
2018-05-17T22:30:58.013Z,97585.37
2018-05-17T22:33:27.841Z,97580.57
2018-05-17T22:35:57.503Z,97574.27
2018-05-17T22:38:27.080Z,97573.56
2018-05-17T22:41:34.653Z,97573.80
2018-05-17T22:44:04.977Z,97568.98
2018-05-17T22:46:36.296Z,97567.82
2018-05-17T22:49:06.995Z,97570.45
2018-05-17T22:51:38.099Z,97568.61
2018-05-17T22:54:07.865Z,97570.81
2018-05-17T22:56:55.542Z,97567.89
2018-05-17T22:59:25.632Z,97575.64
2018-05-17T23:01:55.551Z,97564.02
2018-05-17T23:04:25.256Z,97564.16
2018-05-17T23:06:55.212Z,97558.91
2018-05-17T23:09:25.000Z,97561.07
2018-05-17T23:11:54.814Z,97558.56
2018-05-17T23:14:24.627Z,97552.91
2018-05-17T23:16:54.252Z,97549.56
2018-05-17T23:19:24.381Z,97548.00
2018-05-17T23:21:54.376Z,97551.05
2018-05-17T23:24:24.746Z,97547.75
2018-05-17T23:26:59.661Z,97555.66
2018-05-17T23:29:30.676Z,97541.95
2018-05-17T23:32:01.627Z,97544.39
2018-05-17T23:34:32.055Z,97539.94
2018-05-17T23:37:02.271Z,97540.30
2018-05-17T23:39:32.683Z,97529.97
2018-05-17T23:42:03.107Z,97529.78
2018-05-17T23:44:33.397Z,97535.17
2018-05-17T23:47:06.089Z,97528.28
2018-05-17T23:49:37.897Z,97533.73
2018-05-17T23:52:07.760Z,97529.84
2018-05-17T23:54:37.421Z,97530.77
2018-05-17T23:57:07.140Z,97529.53
